Terminal Aerodrome Forecast
Issued by NWS

Home | Current Version | Previous Version | Text Only | Print | Product List | Glossary On
Versions: 1 2 3 4 5 6 7 8 9 10 11 12 13 14 15 16
000
FTAK31 PAJN 240521
TAFAWG
TAF
PAWG 240521Z 2406/2506 VRB04KT P6SM FEW070 BKN140
     FM241400 11005KT P6SM VCSH BKN070 OVC090
     FM241700 11006KT P6SM -RA OVC050
     FM250200 VRB05KT P6SM VCSH BKN040 BKN080
      AMD LTD TO CLD VIS AND WIND 2406/2415=

USA.gov is the U.S. government's official web portal to all federal, state and local government web resources and services.